logo
Search for airport 
image banner adimage banner adimage banner ad
image banner ad

PMDY - Henderson Fld

Located in Midway Atoll,

ICAO - MDY, IATA - MDY

Data provided by Airmate  

General information

Coordinates: N28°12'5" W177°22'53"
Elevation is 12 feet MSL.
Magnetic variation is 10° East
View others Airports in Midway Islands

Operational data

Special qualification required
Current time UTC:
Current local time:
Weather
METAR: PMDY 220756Z AUTO 19006KT 10SM CLR 22/21 A3016 RMK AO2 SLP214 T02170211
TAF: PMDY 220520Z 2206/2306 16007KT P6SM SCT020 SCT050
View NOTAMs / SUP AIP / TFR affecting this airport [VIEW]
Communications frequencies: [VIEW]

Runways:

RWY identifierQFULength (ft)Width (ft)SurfaceLDA (ft)
0669°7800150ASPH7800
24249°7800150ASPH7400

Airport contact information

Address: Midway Atoll

Satellite view of PMDY